Gokay K — TCHF — position and weather

sailwx.info

Track history (hours):
 
Tides and Currents Weather Stations Pressure Air Temp Water Temp Dewpoint Dewpoint Depression Visibility Wind Speed Wind Dir Waves Ship Positions

Gokay K

Last reported at 2014-Nov-26 05:12 UTC. Time now 2014-Nov-26 12:42 UTC.
Position N 40°55' E 028°49'.

; draft 7.4 m.

Type: Cargo ship. MMSI: 271000029.

Date/timePositionNaut miles runAvg speedWind from/ knotsBaromVisibWave heightAir tempDewpointWater temp
2014-Nov-26 05:12N 40°55' E 028°49'6 0.6
2014-Nov-25 19:32N 40°57' E 028°56'27 8.7
2014-Nov-25 16:28N 41°21' E 029°13'348 7.6
2014-Nov-23 18:33N 46°49' E 031°54'8 8.3
2014-Nov-23 17:33N 46°56' E 032°01'1 0.9
2014-Nov-23 16:33N 46°57' E 032°00'0 0.0
2014-Nov-23 15:33N 46°57' E 032°00'0 0.0
2014-Nov-23 14:33N 46°57' E 032°00'0 0.0
2014-Nov-23 13:33N 46°57' E 032°00'0 0.0
2014-Nov-23 12:33N 46°57' E 032°00'0 0.0
2014-Nov-23 11:33N 46°57' E 032°00'0 0.0
2014-Nov-23 10:33N 46°57' E 032°00'0 0.0
2014-Nov-23 09:33N 46°57' E 032°00'0 0.0
2014-Nov-23 08:33N 46°57' E 032°00'0 0.0
2014-Nov-23 07:30N 46°57' E 032°00'0 0.0
2014-Nov-23 06:33N 46°57' E 032°00'0 0.0
2014-Nov-23 05:33N 46°57' E 032°00'0 0.0
2014-Nov-23 04:33N 46°57' E 032°00'0 0.0
2014-Nov-23 03:33N 46°57' E 032°00'0 0.0
2014-Nov-23 02:33N 46°57' E 032°00'0 0.0
2014-Nov-23 01:33N 46°57' E 032°00'0 0.0
2014-Nov-23 00:33N 46°57' E 032°00'0 0.0
2014-Nov-22 23:33N 46°57' E 032°00'0 0.0
2014-Nov-22 22:33N 46°57' E 032°00'0 0.0
2014-Nov-22 21:30N 46°57' E 032°00'0 0.0
2014-Nov-22 20:33N 46°57' E 032°00'0 0.0
2014-Nov-22 19:33N 46°57' E 032°00'0 0.0
2014-Nov-22 18:33N 46°57' E 032°00'0 0.0
2014-Nov-22 17:30N 46°57' E 032°00'0 0.0
2014-Nov-22 16:33N 46°57' E 032°00'0 0.0
2014-Nov-22 15:33N 46°57' E 032°00'0 0.0
2014-Nov-22 14:33N 46°57' E 032°00'0 0.0
2014-Nov-22 13:33N 46°57' E 032°00'0 0.0
2014-Nov-22 12:33N 46°57' E 032°00'0 0.0
2014-Nov-22 11:33N 46°57' E 032°00'0 0.0
2014-Nov-22 10:33N 46°57' E 032°00'0 0.0
2014-Nov-22 09:33N 46°57' E 032°00'0 0.0
2014-Nov-22 08:33N 46°57' E 032°00'0 0.0
2014-Nov-22 07:33N 46°57' E 032°00'0 0.0
2014-Nov-22 06:33N 46°57' E 032°00'0 0.0
2014-Nov-22 05:33N 46°57' E 032°00'0 0.0
2014-Nov-22 04:33N 46°57' E 032°00'0 0.0
2014-Nov-22 03:33N 46°57' E 032°00'0 0.0
2014-Nov-22 02:33N 46°57' E 032°00'0 0.0
2014-Nov-22 01:33N 46°57' E 032°00'0 0.0
2014-Nov-22 00:33N 46°57' E 032°00'0 0.0
2014-Nov-21 23:33N 46°57' E 032°00'0 0.0
2014-Nov-21 22:33N 46°57' E 032°00'0 0.0
2014-Nov-21 21:33N 46°57' E 032°00'0 0.0
2014-Nov-21 20:33N 46°57' E 032°00'0 0.0
2014-Nov-21 19:33N 46°57' E 032°00'0 0.0
2014-Nov-21 18:33N 46°57' E 032°00'0 0.0
2014-Nov-21 17:33N 46°57' E 032°00'0 0.0
2014-Nov-21 16:33N 46°57' E 032°00'0 0.0
2014-Nov-21 15:33N 46°57' E 032°00'0 0.0
2014-Nov-21 14:33N 46°57' E 032°00'0 0.0
2014-Nov-21 09:33N 46°57' E 032°00'0 0.0
2014-Nov-21 08:33N 46°57' E 032°00'0 0.0
2014-Nov-21 07:30N 46°57' E 032°00'0 0.0
2014-Nov-21 06:33N 46°57' E 032°00'0 0.0
2014-Nov-21 05:33N 46°57' E 032°00'0 0.0
2014-Nov-21 04:33N 46°57' E 032°00'0 0.0
2014-Nov-21 03:33N 46°57' E 032°00'0 0.0
2014-Nov-21 02:33N 46°57' E 032°00'0 0.0
2014-Nov-21 01:33N 46°57' E 032°00'0 0.0
2014-Nov-21 00:33N 46°57' E 032°00'0 0.0
2014-Nov-20 23:33N 46°57' E 032°00'0 0.0
2014-Nov-20 22:33N 46°57' E 032°00'0 0.4
2014-Nov-20 21:34N 46°57' E 032°01'7 6.8
2014-Nov-20 20:34N 46°50' E 031°56'9 8.6
2014-Nov-20 19:34N 46°42' E 031°56'9 8.9
2014-Nov-20 18:34N 46°36' E 031°47'36 1.7
2014-Nov-19 21:03N 46°18' E 031°01'0 0.2
2014-Nov-19 20:06N 46°18' E 031°02'  
Track history (hours):
 
Tides and Currents Weather Stations Pressure Air Temp Water Temp Dewpoint Dewpoint Depression Visibility Wind Speed Wind Dir Waves Ship Positions

Gokay K

Last reported at 2014-Nov-26 05:12 UTC. Time now 2014-Nov-26 12:42 UTC.
Position N 40°55' E 028°49'.

; draft 7.4 m.

Type: Cargo ship. MMSI: 271000029.

Date/timePositionNaut miles runAvg speedWind from/ knotsBaromVisibWave heightAir tempDewpointWater temp
2014-Nov-26 05:12N 40°55' E 028°49'6 0.6
2014-Nov-25 19:32N 40°57' E 028°56'27 8.7
2014-Nov-25 16:28N 41°21' E 029°13'348 7.6
2014-Nov-23 18:33N 46°49' E 031°54'8 8.3
2014-Nov-23 17:33N 46°56' E 032°01'1 0.9
2014-Nov-23 16:33N 46°57' E 032°00'0 0.0
2014-Nov-23 15:33N 46°57' E 032°00'0 0.0
2014-Nov-23 14:33N 46°57' E 032°00'0 0.0
2014-Nov-23 13:33N 46°57' E 032°00'0 0.0
2014-Nov-23 12:33N 46°57' E 032°00'0 0.0
2014-Nov-23 11:33N 46°57' E 032°00'0 0.0
2014-Nov-23 10:33N 46°57' E 032°00'0 0.0
2014-Nov-23 09:33N 46°57' E 032°00'0 0.0
2014-Nov-23 08:33N 46°57' E 032°00'0 0.0
2014-Nov-23 07:30N 46°57' E 032°00'0 0.0
2014-Nov-23 06:33N 46°57' E 032°00'0 0.0
2014-Nov-23 05:33N 46°57' E 032°00'0 0.0
2014-Nov-23 04:33N 46°57' E 032°00'0 0.0
2014-Nov-23 03:33N 46°57' E 032°00'0 0.0
2014-Nov-23 02:33N 46°57' E 032°00'0 0.0
2014-Nov-23 01:33N 46°57' E 032°00'0 0.0
2014-Nov-23 00:33N 46°57' E 032°00'0 0.0
2014-Nov-22 23:33N 46°57' E 032°00'0 0.0
2014-Nov-22 22:33N 46°57' E 032°00'0 0.0
2014-Nov-22 21:30N 46°57' E 032°00'0 0.0
2014-Nov-22 20:33N 46°57' E 032°00'0 0.0
2014-Nov-22 19:33N 46°57' E 032°00'0 0.0
2014-Nov-22 18:33N 46°57' E 032°00'0 0.0
2014-Nov-22 17:30N 46°57' E 032°00'0 0.0
2014-Nov-22 16:33N 46°57' E 032°00'0 0.0
2014-Nov-22 15:33N 46°57' E 032°00'0 0.0
2014-Nov-22 14:33N 46°57' E 032°00'0 0.0
2014-Nov-22 13:33N 46°57' E 032°00'0 0.0
2014-Nov-22 12:33N 46°57' E 032°00'0 0.0
2014-Nov-22 11:33N 46°57' E 032°00'0 0.0
2014-Nov-22 10:33N 46°57' E 032°00'0 0.0
2014-Nov-22 09:33N 46°57' E 032°00'0 0.0
2014-Nov-22 08:33N 46°57' E 032°00'0 0.0
2014-Nov-22 07:33N 46°57' E 032°00'0 0.0
2014-Nov-22 06:33N 46°57' E 032°00'0 0.0
2014-Nov-22 05:33N 46°57' E 032°00'0 0.0
2014-Nov-22 04:33N 46°57' E 032°00'0 0.0
2014-Nov-22 03:33N 46°57' E 032°00'0 0.0
2014-Nov-22 02:33N 46°57' E 032°00'0 0.0
2014-Nov-22 01:33N 46°57' E 032°00'0 0.0
2014-Nov-22 00:33N 46°57' E 032°00'0 0.0
2014-Nov-21 23:33N 46°57' E 032°00'0 0.0
2014-Nov-21 22:33N 46°57' E 032°00'0 0.0
2014-Nov-21 21:33N 46°57' E 032°00'0 0.0
2014-Nov-21 20:33N 46°57' E 032°00'0 0.0
2014-Nov-21 19:33N 46°57' E 032°00'0 0.0
2014-Nov-21 18:33N 46°57' E 032°00'0 0.0
2014-Nov-21 17:33N 46°57' E 032°00'0 0.0
2014-Nov-21 16:33N 46°57' E 032°00'0 0.0
2014-Nov-21 15:33N 46°57' E 032°00'0 0.0
2014-Nov-21 14:33N 46°57' E 032°00'0 0.0
2014-Nov-21 09:33N 46°57' E 032°00'0 0.0
2014-Nov-21 08:33N 46°57' E 032°00'0 0.0
2014-Nov-21 07:30N 46°57' E 032°00'0 0.0
2014-Nov-21 06:33N 46°57' E 032°00'0 0.0
2014-Nov-21 05:33N 46°57' E 032°00'0 0.0
2014-Nov-21 04:33N 46°57' E 032°00'0 0.0
2014-Nov-21 03:33N 46°57' E 032°00'0 0.0
2014-Nov-21 02:33N 46°57' E 032°00'0 0.0
2014-Nov-21 01:33N 46°57' E 032°00'0 0.0
2014-Nov-21 00:33N 46°57' E 032°00'0 0.0
2014-Nov-20 23:33N 46°57' E 032°00'0 0.0
2014-Nov-20 22:33N 46°57' E 032°00'0 0.4
2014-Nov-20 21:34N 46°57' E 032°01'7 6.8
2014-Nov-20 20:34N 46°50' E 031°56'9 8.6
2014-Nov-20 19:34N 46°42' E 031°56'9 8.9
2014-Nov-20 18:34N 46°36' E 031°47'36 1.7
2014-Nov-19 21:03N 46°18' E 031°01'0 0.2
2014-Nov-19 20:06N 46°18' E 031°02'  

Dump ship's entire track history